createdAt,value
2022-08-09T00:00:46.048Z,6.93
2022-08-09T00:02:51.412Z,6.13
2022-08-09T00:05:03.580Z,5.72
2022-08-09T00:07:17.846Z,9.93
2022-08-09T00:09:21.257Z,5.18
2022-08-09T00:11:27.677Z,5.25
2022-08-09T00:13:50.604Z,4.55
2022-08-09T00:15:59.251Z,5.40
2022-08-09T00:18:11.956Z,8.48
2022-08-09T00:20:15.568Z,6.35
2022-08-09T00:22:18.562Z,5.95
2022-08-09T00:24:21.573Z,4.65
2022-08-09T00:26:32.447Z,9.05
2022-08-09T00:28:36.925Z,5.37
2022-08-09T00:30:42.561Z,9.70
2022-08-09T00:32:46.042Z,8.10
2022-08-09T00:34:52.335Z,5.82
2022-08-09T00:36:56.115Z,6.47
2022-08-09T00:39:00.139Z,5.88
2022-08-09T00:41:05.273Z,6.65
2022-08-09T00:44:09.987Z,5.65
2022-08-09T00:45:34.807Z,4.60
2022-08-09T00:47:40.821Z,7.55
2022-08-09T00:49:52.481Z,4.63
2022-08-09T00:51:58.499Z,8.85
2022-08-09T00:54:08.339Z,6.25
2022-08-09T00:56:13.466Z,6.43
2022-08-09T00:58:22.256Z,4.63
2022-08-09T01:00:28.637Z,8.30
2022-08-09T01:02:32.001Z,4.65
2022-08-09T01:04:47.006Z,5.50
2022-08-09T01:06:59.000Z,4.97
2022-08-09T01:09:11.897Z,7.70
2022-08-09T01:11:23.619Z,4.10
2022-08-09T01:13:53.550Z,4.63
2022-08-09T01:16:01.010Z,4.90
2022-08-09T01:18:08.872Z,5.05
2022-08-09T01:20:29.236Z,6.10
2022-08-09T01:24:00.952Z,5.13
2022-08-09T01:25:48.967Z,4.55
2022-08-09T01:27:58.570Z,5.45
2022-08-09T01:30:06.224Z,10.23
2022-08-09T01:32:31.214Z,4.75
2022-08-09T01:34:39.099Z,7.07
2022-08-09T01:36:46.673Z,4.90
2022-08-09T01:38:52.072Z,4.85
2022-08-09T01:41:05.706Z,4.68
2022-08-09T01:43:13.417Z,4.38
2022-08-09T01:45:20.232Z,6.95
2022-08-09T01:47:26.698Z,4.88
2022-08-09T01:49:39.067Z,5.80
2022-08-09T01:51:52.966Z,4.78
2022-08-09T01:53:58.283Z,5.55
2022-08-09T01:56:03.151Z,7.80
2022-08-09T01:58:09.145Z,6.63
2022-08-09T02:00:35.279Z,4.40
2022-08-09T02:02:43.490Z,5.05
2022-08-09T02:04:48.739Z,5.75
2022-08-09T02:06:59.002Z,5.43
2022-08-09T02:09:06.890Z,6.00
2022-08-09T02:11:16.583Z,5.82
2022-08-09T02:15:49.617Z,4.80
2022-08-09T02:18:09.751Z,5.55
2022-08-09T02:22:36.187Z,5.47
2022-08-09T02:24:43.330Z,6.25
2022-08-09T02:26:51.578Z,6.05
2022-08-09T02:28:59.625Z,9.90
2022-08-09T02:31:08.129Z,5.93
2022-08-09T02:33:17.005Z,7.43
2022-08-09T02:35:46.374Z,6.72
2022-08-09T02:37:47.724Z,5.10
2022-08-09T02:40:01.271Z,5.60
2022-08-09T02:42:07.728Z,7.80
2022-08-09T02:44:29.123Z,6.13
2022-08-09T02:46:38.249Z,6.43
2022-08-09T02:48:46.141Z,7.57
2022-08-09T02:50:56.447Z,7.13
2022-08-09T02:53:03.643Z,6.00
2022-08-09T02:55:20.291Z,7.15
2022-08-09T02:57:26.783Z,7.63
2022-08-09T02:59:36.819Z,9.70
2022-08-09T03:02:06.279Z,7.07
2022-08-09T03:04:17.391Z,8.07
2022-08-09T03:06:27.245Z,9.30
2022-08-09T03:08:31.664Z,6.47
2022-08-09T03:10:35.444Z,7.63
2022-08-09T03:12:40.107Z,7.53
2022-08-09T03:14:46.395Z,6.20
2022-08-09T03:16:53.768Z,6.65
2022-08-09T03:18:56.951Z,9.23
2022-08-09T03:21:06.354Z,5.63
2022-08-09T03:23:15.248Z,5.88
2022-08-09T03:25:26.683Z,7.82
2022-08-09T03:27:50.262Z,6.07
2022-08-09T03:29:57.580Z,5.70
2022-08-09T03:32:08.893Z,7.82
2022-08-09T03:34:12.366Z,7.40
2022-08-09T03:36:17.566Z,7.43
2022-08-09T03:38:28.732Z,7.07
2022-08-09T03:40:32.424Z,6.57
2022-08-09T03:42:36.092Z,6.72
2022-08-09T03:44:39.467Z,9.30
2022-08-09T03:46:42.571Z,9.48
2022-08-09T03:48:51.344Z,6.57
2022-08-09T03:50:56.846Z,8.02
2022-08-09T03:53:03.384Z,11.20
2022-08-09T03:55:11.654Z,6.03
2022-08-09T03:57:20.447Z,9.35
2022-08-09T03:59:27.532Z,10.30
2022-08-09T04:01:47.026Z,7.88
2022-08-09T04:04:01.237Z,9.75
2022-08-09T04:06:07.150Z,10.60
2022-08-09T04:08:10.491Z,10.10
2022-08-09T04:10:14.155Z,7.53
2022-08-09T04:12:44.581Z,8.50
2022-08-09T04:15:00.573Z,12.75
2022-08-09T04:17:05.555Z,11.35
2022-08-09T04:19:15.810Z,6.93
2022-08-09T04:21:38.452Z,7.15
2022-08-09T04:23:54.551Z,14.55
2022-08-09T04:26:00.916Z,9.27
2022-08-09T04:28:04.495Z,7.82
2022-08-09T04:30:11.070Z,8.05
2022-08-09T04:32:15.646Z,8.73
2022-08-09T04:34:31.958Z,11.57
2022-08-09T04:36:35.235Z,10.45
2022-08-09T04:38:38.719Z,8.80
2022-08-09T04:40:41.669Z,14.32
2022-08-09T04:42:46.321Z,9.15
2022-08-09T04:44:51.740Z,27.92
2022-08-09T04:46:57.748Z,43.75
2022-08-09T04:49:02.763Z,46.10
2022-08-09T04:51:08.364Z,34.33
2022-08-09T04:53:13.767Z,26.98
2022-08-09T04:55:16.896Z,28.27
2022-08-09T04:57:23.984Z,24.08
2022-08-09T04:59:30.167Z,20.60
2022-08-09T05:01:33.407Z,14.10
2022-08-09T05:03:42.227Z,11.07
2022-08-09T05:05:52.771Z,14.48
2022-08-09T05:08:13.837Z,20.30
2022-08-09T05:10:18.034Z,13.43
2022-08-09T05:12:22.635Z,16.13
2022-08-09T05:14:26.958Z,13.75
2022-08-09T05:16:31.676Z,9.68
2022-08-09T05:18:50.778Z,12.27
2022-08-09T05:20:58.351Z,11.25
2022-08-09T05:23:55.201Z,13.52
2022-08-09T05:25:28.322Z,12.10
2022-08-09T05:27:45.418Z,10.43
2022-08-09T05:29:51.021Z,7.22
2022-08-09T05:31:57.711Z,6.80
2022-08-09T05:34:01.324Z,11.40
2022-08-09T05:36:05.577Z,16.80
2022-08-09T05:38:10.275Z,12.95
2022-08-09T05:40:27.447Z,8.27
2022-08-09T05:42:30.433Z,5.80
2022-08-09T05:44:34.997Z,10.10
2022-08-09T05:46:38.881Z,19.95
2022-08-09T05:48:42.201Z,7.20
2022-08-09T05:51:03.339Z,8.63
2022-08-09T05:53:21.397Z,8.88
2022-08-09T05:55:27.574Z,6.25
2022-08-09T05:57:55.812Z,8.23
2022-08-09T05:59:57.709Z,6.10
2022-08-09T06:02:00.698Z,8.35
2022-08-09T06:04:05.428Z,6.93
2022-08-09T06:06:08.995Z,4.43
2022-08-09T06:08:12.668Z,4.93
2022-08-09T06:10:18.079Z,5.65
2022-08-09T06:12:26.305Z,6.82
2022-08-09T06:14:29.481Z,6.95
2022-08-09T06:16:32.577Z,6.80
2022-08-09T06:18:36.475Z,5.32
2022-08-09T06:20:39.583Z,7.55
2022-08-09T06:22:42.596Z,5.43
2022-08-09T06:24:48.952Z,3.58
2022-08-09T06:26:51.982Z,4.78
2022-08-09T06:29:00.148Z,5.03
2022-08-09T06:31:07.911Z,5.22
2022-08-09T06:33:30.047Z,7.95
2022-08-09T06:35:35.676Z,5.85
2022-08-09T06:38:05.673Z,5.70
2022-08-09T06:40:17.731Z,5.75
2022-08-09T06:42:30.540Z,3.15
2022-08-09T06:44:36.538Z,4.53
2022-08-09T06:46:41.228Z,4.97
2022-08-09T06:48:44.025Z,2.53
2022-08-09T06:50:47.833Z,3.50
2022-08-09T06:52:50.628Z,3.85
2022-08-09T06:54:54.113Z,4.40
2022-08-09T06:56:57.616Z,7.82
2022-08-09T07:00:50.385Z,5.28
2022-08-09T07:01:35.524Z,5.20
2022-08-09T07:03:52.163Z,2.67
2022-08-09T07:06:03.788Z,3.33
2022-08-09T07:08:08.046Z,3.05
2022-08-09T07:10:22.280Z,2.47
2022-08-09T07:12:38.680Z,4.22
2022-08-09T07:14:44.294Z,3.10
2022-08-09T07:16:55.369Z,2.17
2022-08-09T07:19:00.876Z,3.05
2022-08-09T07:21:04.135Z,6.60
2022-08-09T07:23:18.179Z,2.85
2022-08-09T07:25:22.368Z,4.32
2022-08-09T07:27:33.925Z,1.42
2022-08-09T07:29:42.957Z,6.00
2022-08-09T07:31:48.193Z,4.57
2022-08-09T07:33:55.761Z,2.30
2022-08-09T07:35:59.037Z,2.38
2022-08-09T07:38:03.979Z,3.75
2022-08-09T07:40:08.435Z,2.75
2022-08-09T07:42:15.936Z,2.22
2022-08-09T07:44:24.161Z,3.35
2022-08-09T07:46:43.432Z,3.53
2022-08-09T07:48:46.926Z,2.80
2022-08-09T07:52:03.079Z,2.88
2022-08-09T07:53:36.456Z,3.63
2022-08-09T07:56:03.334Z,2.20
2022-08-09T07:58:13.198Z,2.20
2022-08-09T08:00:20.522Z,3.45
2022-08-09T08:02:42.281Z,2.83
2022-08-09T08:04:48.540Z,3.58
2022-08-09T08:06:56.203Z,6.43
2022-08-09T08:09:04.519Z,3.60
2022-08-09T08:12:08.815Z,2.67
2022-08-09T08:13:39.892Z,3.38
2022-08-09T08:15:54.205Z,4.82
2022-08-09T08:17:58.816Z,4.10
2022-08-09T08:20:02.197Z,2.45
2022-08-09T08:22:21.286Z,1.77
2022-08-09T08:24:40.269Z,6.93
2022-08-09T08:26:56.132Z,3.15
2022-08-09T08:28:59.613Z,2.78
2022-08-09T08:31:14.395Z,1.40
2022-08-09T08:33:22.873Z,2.95
2022-08-09T08:35:32.066Z,1.38
2022-08-09T08:37:59.846Z,3.70
2022-08-09T08:40:09.444Z,3.78
2022-08-09T08:42:14.058Z,2.30
2022-08-09T08:44:27.075Z,4.10
2022-08-09T08:46:59.679Z,6.80
2022-08-09T08:49:01.860Z,2.65
2022-08-09T08:51:06.409Z,2.70
2022-08-09T08:53:16.101Z,2.42
2022-08-09T08:55:24.883Z,1.60
2022-08-09T08:57:28.480Z,3.13
2022-08-09T08:59:47.128Z,8.65
2022-08-09T09:01:52.822Z,6.18
2022-08-09T09:03:58.808Z,2.40
2022-08-09T09:06:05.191Z,3.72
2022-08-09T09:08:30.922Z,2.97
2022-08-09T09:10:35.725Z,3.53
2022-08-09T09:12:40.337Z,2.08
2022-08-09T09:14:44.261Z,2.80
2022-08-09T09:16:47.402Z,3.30
2022-08-09T09:19:10.807Z,2.50
2022-08-09T09:21:17.073Z,2.60
2022-08-09T09:23:41.914Z,2.75
2022-08-09T09:26:11.833Z,3.38
2022-08-09T09:28:21.428Z,5.82
2022-08-09T09:30:54.061Z,3.70
2022-08-09T09:33:16.701Z,2.28
2022-08-09T09:35:20.789Z,3.33
2022-08-09T09:37:31.687Z,2.65
2022-08-09T09:39:57.043Z,2.65
2022-08-09T09:42:10.290Z,5.68
2022-08-09T09:44:25.949Z,7.10
2022-08-09T09:46:42.092Z,5.75
2022-08-09T09:48:56.329Z,4.55
2022-08-09T09:50:59.759Z,3.00
2022-08-09T09:53:03.725Z,3.53
2022-08-09T09:55:27.801Z,5.38
2022-08-09T09:58:02.951Z,2.50
2022-08-09T09:59:55.320Z,2.85
2022-08-09T10:02:00.770Z,2.85
2022-08-09T10:04:12.673Z,2.25
2022-08-09T10:06:19.525Z,2.53
2022-08-09T10:08:27.878Z,4.30
2022-08-09T10:10:34.277Z,2.38
2022-08-09T10:12:49.795Z,9.20
2022-08-09T10:15:07.367Z,3.75
2022-08-09T10:17:40.362Z,5.43
2022-08-09T10:19:45.747Z,4.38
2022-08-09T10:21:50.820Z,3.47
2022-08-09T10:23:55.320Z,10.10
2022-08-09T10:26:07.498Z,3.10
2022-08-09T10:28:13.850Z,3.42
2022-08-09T10:32:43.188Z,3.13
2022-08-09T10:34:47.336Z,3.35
2022-08-09T10:36:50.346Z,2.00
2022-08-09T10:38:56.103Z,5.30
2022-08-09T10:41:03.543Z,4.70
2022-08-09T10:43:08.066Z,4.03
2022-08-09T10:45:16.629Z,7.55
2022-08-09T10:48:20.405Z,2.15
2022-08-09T10:50:15.203Z,2.53
2022-08-09T10:52:47.157Z,2.08
2022-08-09T10:54:50.661Z,5.07
2022-08-09T10:57:10.914Z,1.90
2022-08-09T10:59:31.016Z,4.22
2022-08-09T11:03:13.616Z,2.17
2022-08-09T11:04:30.076Z,4.90
2022-08-09T11:06:37.274Z,3.85
2022-08-09T11:08:47.575Z,5.88
2022-08-09T11:10:56.420Z,5.45
2022-08-09T11:13:49.337Z,1.92
2022-08-09T11:15:50.996Z,3.53
2022-08-09T11:18:04.020Z,3.40
2022-08-09T11:20:12.497Z,5.30
2022-08-09T11:22:43.371Z,1.77
2022-08-09T11:25:04.529Z,3.13
2022-08-09T11:28:04.976Z,1.77
2022-08-09T11:30:06.439Z,2.78
2022-08-09T11:32:42.051Z,2.58
2022-08-09T11:34:51.617Z,2.55
2022-08-09T11:36:56.702Z,3.13
2022-08-09T11:39:02.748Z,5.78
2022-08-09T11:41:26.981Z,3.15
2022-08-09T11:43:43.257Z,3.50
2022-08-09T11:45:58.074Z,5.43
2022-08-09T11:48:08.135Z,4.70
2022-08-09T11:50:55.070Z,3.38
2022-08-09T11:53:28.243Z,3.38
2022-08-09T11:55:51.554Z,4.15
2022-08-09T11:58:02.717Z,2.65
2022-08-09T12:00:13.169Z,2.67
2022-08-09T12:02:37.185Z,4.75
2022-08-09T12:04:43.419Z,3.92
2022-08-09T12:06:55.747Z,3.03
2022-08-09T12:09:01.096Z,5.70
2022-08-09T12:11:04.728Z,4.32
2022-08-09T12:14:08.565Z,3.72
2022-08-09T12:15:59.666Z,6.88
2022-08-09T12:18:05.582Z,2.58
2022-08-09T12:20:19.862Z,5.63
2022-08-09T12:22:29.904Z,2.10
2022-08-09T12:24:33.023Z,4.57
2022-08-09T12:26:42.083Z,5.35
2022-08-09T12:29:00.061Z,3.25
2022-08-09T12:31:31.168Z,4.93
2022-08-09T12:33:58.381Z,2.35
2022-08-09T12:36:27.575Z,3.40
2022-08-09T12:38:38.048Z,3.88
2022-08-09T12:40:45.212Z,2.00
2022-08-09T12:42:50.342Z,3.35
2022-08-09T12:44:54.796Z,1.67
2022-08-09T12:46:58.056Z,3.08
2022-08-09T12:49:04.564Z,5.47
2022-08-09T12:51:07.918Z,5.32
2022-08-09T12:53:34.957Z,3.95
2022-08-09T12:56:14.165Z,2.95
2022-08-09T12:58:11.882Z,2.70
2022-08-09T13:00:30.726Z,3.28
2022-08-09T13:02:53.418Z,4.72
2022-08-09T13:05:02.981Z,5.25
2022-08-09T13:07:14.051Z,2.40
2022-08-09T13:09:24.689Z,2.08
2022-08-09T13:11:31.738Z,2.55
2022-08-09T13:14:01.032Z,5.00
2022-08-09T13:16:02.517Z,5.07
2022-08-09T13:18:09.546Z,3.97
2022-08-09T13:20:23.364Z,6.78
2022-08-09T13:22:36.658Z,4.45
2022-08-09T13:25:03.666Z,2.92
2022-08-09T13:27:25.649Z,1.67
2022-08-09T13:30:02.716Z,3.30
2022-08-09T13:32:15.711Z,5.45
2022-08-09T13:34:19.661Z,4.95
2022-08-09T13:36:40.848Z,2.70
2022-08-09T13:38:55.563Z,4.80
2022-08-09T13:41:52.158Z,6.85
2022-08-09T13:43:35.676Z,2.80
2022-08-09T13:46:44.480Z,2.80
2022-08-09T13:48:05.087Z,6.07
2022-08-09T13:50:29.862Z,3.65
2022-08-09T13:52:36.855Z,6.00
2022-08-09T13:54:41.656Z,2.58
2022-08-09T13:56:47.006Z,5.70
2022-08-09T13:58:50.290Z,3.20
2022-08-09T14:00:53.238Z,7.07
2022-08-09T14:03:04.113Z,3.08
2022-08-09T14:05:59.170Z,3.80
2022-08-09T14:07:47.314Z,3.92
2022-08-09T14:09:51.348Z,7.10
2022-08-09T14:11:58.048Z,4.63
2022-08-09T14:14:22.604Z,2.72
2022-08-09T14:16:28.717Z,3.03
2022-08-09T14:18:32.327Z,7.47
2022-08-09T14:20:35.857Z,3.42
2022-08-09T14:22:38.876Z,3.67
2022-08-09T14:24:53.391Z,3.83
2022-08-09T14:26:57.265Z,4.03
2022-08-09T14:29:03.444Z,2.42
2022-08-09T14:31:10.638Z,6.07
2022-08-09T14:33:13.663Z,2.80
2022-08-09T14:35:24.068Z,2.72
2022-08-09T14:38:02.342Z,5.15
2022-08-09T14:40:09.124Z,3.88
2022-08-09T14:42:13.470Z,6.05
2022-08-09T14:44:48.344Z,10.45
2022-08-09T14:47:26.198Z,2.63
2022-08-09T14:49:26.723Z,3.60
2022-08-09T14:51:30.137Z,5.28
2022-08-09T14:53:33.338Z,3.65
2022-08-09T14:55:47.853Z,3.38
2022-08-09T14:57:53.001Z,6.10
2022-08-09T14:59:57.293Z,5.72
2022-08-09T15:02:01.376Z,2.50
2022-08-09T15:04:05.894Z,4.55
2022-08-09T15:06:12.875Z,4.00
2022-08-09T15:08:18.969Z,3.55
2022-08-09T15:10:25.072Z,2.58
2022-08-09T15:12:31.421Z,4.28
2022-08-09T15:14:34.619Z,6.78
2022-08-09T15:16:41.348Z,3.35
2022-08-09T15:18:49.056Z,3.78
2022-08-09T15:21:57.108Z,5.35
2022-08-09T15:24:05.782Z,2.67
2022-08-09T15:25:40.847Z,3.35
2022-08-09T15:27:47.709Z,6.45
2022-08-09T15:30:55.476Z,2.13
2022-08-09T15:32:29.101Z,3.72
2022-08-09T15:34:42.093Z,4.00
2022-08-09T15:36:48.082Z,3.97
2022-08-09T15:38:51.491Z,2.65
2022-08-09T15:40:54.551Z,5.82
2022-08-09T15:43:00.302Z,5.10
2022-08-09T15:45:06.826Z,2.28
2022-08-09T15:47:14.531Z,6.75
2022-08-09T15:49:25.455Z,2.90
2022-08-09T15:52:03.982Z,3.90
2022-08-09T15:54:05.690Z,4.50
2022-08-09T15:56:30.949Z,3.63
2022-08-09T15:58:36.879Z,3.97
2022-08-09T16:00:42.664Z,8.43
2022-08-09T16:02:53.937Z,4.40
2022-08-09T16:04:57.536Z,6.00
2022-08-09T16:07:01.848Z,3.05
2022-08-09T16:09:06.137Z,4.75
2022-08-09T16:11:09.206Z,7.38
2022-08-09T16:13:18.717Z,5.82
2022-08-09T16:16:10.121Z,5.88
2022-08-09T16:18:00.784Z,5.45
2022-08-09T16:20:09.015Z,4.72
2022-08-09T16:22:15.599Z,6.82
2022-08-09T16:24:30.367Z,6.68
2022-08-09T16:26:37.626Z,4.72
2022-08-09T16:28:40.578Z,3.88
2022-08-09T16:30:54.231Z,4.20
2022-08-09T16:33:02.137Z,2.75
2022-08-09T16:35:06.217Z,5.00
2022-08-09T16:37:14.241Z,5.53
2022-08-09T16:39:17.945Z,7.47
2022-08-09T16:41:25.049Z,5.45
2022-08-09T16:43:43.904Z,6.93
2022-08-09T16:45:53.829Z,3.67
2022-08-09T16:48:43.283Z,5.13
2022-08-09T16:50:31.671Z,4.35
2022-08-09T16:52:36.880Z,6.47
2022-08-09T16:54:42.035Z,6.05
2022-08-09T16:56:49.476Z,5.30
2022-08-09T16:58:53.277Z,3.40
2022-08-09T17:00:58.941Z,5.72
2022-08-09T17:03:02.019Z,4.22
2022-08-09T17:05:08.232Z,5.88
2022-08-09T17:08:46.351Z,5.10
2022-08-09T17:09:45.686Z,3.35
2022-08-09T17:11:52.414Z,6.63
2022-08-09T17:14:01.022Z,5.50
2022-08-09T17:16:07.702Z,7.43
2022-08-09T17:18:10.844Z,8.85
2022-08-09T17:20:33.190Z,8.68
2022-08-09T17:22:50.143Z,5.00
2022-08-09T17:24:55.778Z,6.60
2022-08-09T17:27:06.819Z,10.90
2022-08-09T17:29:20.480Z,9.32
2022-08-09T17:31:26.737Z,4.68
2022-08-09T17:33:37.588Z,13.98
2022-08-09T17:35:43.751Z,9.75
2022-08-09T17:38:13.070Z,13.27
2022-08-09T17:40:17.913Z,9.88
2022-08-09T17:42:40.982Z,9.80
2022-08-09T17:44:49.009Z,10.45
2022-08-09T17:46:55.637Z,10.20
2022-08-09T17:49:00.713Z,9.48
2022-08-09T17:51:09.659Z,9.30
2022-08-09T17:53:22.422Z,9.48
2022-08-09T17:55:34.435Z,14.40
2022-08-09T17:58:03.183Z,11.65
2022-08-09T18:00:09.128Z,7.93
2022-08-09T18:02:18.794Z,10.88
2022-08-09T18:04:24.585Z,6.57
2022-08-09T18:06:32.080Z,4.65
2022-08-09T18:08:35.941Z,11.88
2022-08-09T18:10:42.597Z,12.32
2022-08-09T18:13:43.725Z,7.37
2022-08-09T18:15:12.221Z,7.20
2022-08-09T18:17:19.069Z,5.25
2022-08-09T18:20:55.556Z,3.22
2022-08-09T18:21:53.790Z,6.85
2022-08-09T18:24:10.035Z,4.90
2022-08-09T18:26:16.177Z,4.55
2022-08-09T18:30:36.115Z,5.03
2022-08-09T18:30:49.261Z,4.70
2022-08-09T18:32:55.447Z,9.70
2022-08-09T18:34:58.440Z,5.93
2022-08-09T18:37:02.452Z,5.43
2022-08-09T18:39:06.889Z,3.70
2022-08-09T18:41:19.064Z,5.05
2022-08-09T18:43:35.140Z,6.68
2022-08-09T18:46:46.670Z,8.10
2022-08-09T18:48:05.344Z,12.95
2022-08-09T18:50:10.056Z,5.53
2022-08-09T18:52:24.604Z,12.27
2022-08-09T18:54:38.257Z,9.02
2022-08-09T18:56:41.297Z,6.03
2022-08-09T18:58:44.540Z,11.52
2022-08-09T19:00:48.286Z,10.63
2022-08-09T19:02:54.255Z,8.27
2022-08-09T19:05:04.279Z,5.90
2022-08-09T19:07:23.454Z,5.38
2022-08-09T19:10:13.015Z,5.25
2022-08-09T19:11:52.665Z,5.82
2022-08-09T19:13:57.073Z,7.38
2022-08-09T19:16:06.613Z,8.05
2022-08-09T19:18:17.184Z,7.22
2022-08-09T19:20:39.265Z,6.78
2022-08-09T19:22:42.374Z,9.10
2022-08-09T19:25:11.482Z,9.75
2022-08-09T19:27:20.268Z,10.13
2022-08-09T19:29:24.582Z,10.00
2022-08-09T19:31:27.870Z,11.40
2022-08-09T19:33:33.622Z,9.80
2022-08-09T19:35:56.788Z,11.13
2022-08-09T19:38:01.610Z,5.88
2022-08-09T19:40:06.281Z,8.75
2022-08-09T19:42:09.499Z,7.93
2022-08-09T19:44:18.495Z,7.13
2022-08-09T19:46:34.119Z,6.22
2022-08-09T19:49:00.452Z,10.70
2022-08-09T19:51:05.037Z,9.88
2022-08-09T19:53:08.013Z,9.65
2022-08-09T19:55:14.894Z,4.93
2022-08-09T19:57:18.650Z,6.47
2022-08-09T19:59:58.413Z,9.73
2022-08-09T20:01:53.126Z,9.18
2022-08-09T20:04:19.801Z,5.80
2022-08-09T20:06:33.996Z,7.80
2022-08-09T20:08:37.022Z,7.32
2022-08-09T20:10:42.406Z,6.43
2022-08-09T20:12:47.520Z,7.50
2022-08-09T20:14:53.222Z,5.32
2022-08-09T20:16:57.116Z,8.88
2022-08-09T20:19:42.248Z,13.20
2022-08-09T20:21:28.205Z,10.50
2022-08-09T20:23:48.642Z,5.93
2022-08-09T20:25:55.347Z,7.75
2022-08-09T20:27:58.417Z,6.68
2022-08-09T20:30:03.985Z,6.43
2022-08-09T20:32:31.022Z,6.60
2022-08-09T20:34:31.966Z,6.25
2022-08-09T20:36:34.937Z,8.15
2022-08-09T20:39:18.689Z,8.38
2022-08-09T20:41:04.801Z,7.40
2022-08-09T20:43:19.192Z,5.53
2022-08-09T20:46:00.900Z,4.88
2022-08-09T20:47:51.221Z,7.97
2022-08-09T20:49:54.177Z,5.45
2022-08-09T20:51:57.952Z,9.55
2022-08-09T20:54:03.837Z,6.28
2022-08-09T20:56:19.905Z,8.88
2022-08-09T20:58:23.816Z,9.63
2022-08-09T21:00:32.070Z,8.70
2022-08-09T21:02:36.461Z,7.35
2022-08-09T21:05:52.069Z,6.40
2022-08-09T21:07:12.149Z,8.07
2022-08-09T21:09:24.991Z,8.20
2022-08-09T21:14:05.244Z,7.88
2022-08-09T21:16:19.133Z,6.32
2022-08-09T21:18:27.460Z,6.07
2022-08-09T21:20:30.870Z,5.70
2022-08-09T21:22:38.459Z,7.53
2022-08-09T21:24:42.198Z,13.15
2022-08-09T21:26:47.741Z,10.02
2022-08-09T21:28:56.853Z,7.95
2022-08-09T21:31:00.235Z,8.50
2022-08-09T21:33:03.304Z,9.95
2022-08-09T21:35:09.207Z,8.82
2022-08-09T21:37:18.436Z,12.35
2022-08-09T21:39:21.758Z,6.18
2022-08-09T21:42:06.018Z,6.82
2022-08-09T21:43:56.474Z,7.65
2022-08-09T21:46:04.403Z,8.05
2022-08-09T21:48:08.562Z,9.80
2022-08-09T21:50:17.622Z,6.55
2022-08-09T21:52:26.318Z,9.63
2022-08-09T21:54:29.300Z,12.88
2022-08-09T21:56:43.224Z,10.38
2022-08-09T21:58:58.230Z,8.10
2022-08-09T22:01:01.409Z,10.82
2022-08-09T22:03:07.163Z,8.40
2022-08-09T22:05:22.991Z,7.03
2022-08-09T22:07:39.797Z,6.18
2022-08-09T22:09:49.658Z,6.32
2022-08-09T22:12:17.818Z,7.22
2022-08-09T22:14:18.287Z,6.75
2022-08-09T22:16:22.021Z,10.63
2022-08-09T22:18:30.840Z,5.75
2022-08-09T22:20:35.874Z,6.65
2022-08-09T22:22:38.911Z,7.97
2022-08-09T22:24:53.528Z,7.10
2022-08-09T22:27:05.959Z,7.28
2022-08-09T22:29:10.110Z,7.13
2022-08-09T22:31:15.770Z,8.52
2022-08-09T22:33:18.753Z,11.38
2022-08-09T22:36:01.109Z,9.63
2022-08-09T22:37:47.831Z,7.13
2022-08-09T22:40:08.109Z,6.15
2022-08-09T22:42:21.943Z,8.40
2022-08-09T22:44:29.850Z,10.32
2022-08-09T22:48:10.309Z,7.95
2022-08-09T22:49:05.478Z,5.85
2022-08-09T22:51:17.824Z,8.18
2022-08-09T22:53:26.506Z,7.43
2022-08-09T22:56:29.610Z,9.20
2022-08-09T22:58:10.115Z,7.40
2022-08-09T23:00:23.683Z,8.50
2022-08-09T23:02:35.020Z,9.07
2022-08-09T23:04:42.127Z,7.95
2022-08-09T23:06:45.307Z,10.80
2022-08-09T23:08:48.599Z,8.73
2022-08-09T23:10:51.646Z,7.72
2022-08-09T23:12:54.891Z,7.30
2022-08-09T23:14:58.477Z,9.43
2022-08-09T23:17:01.632Z,6.82
2022-08-09T23:19:07.240Z,7.95
2022-08-09T23:21:11.434Z,10.75
2022-08-09T23:23:14.727Z,9.23
2022-08-09T23:25:17.788Z,9.38
2022-08-09T23:27:20.786Z,8.20
2022-08-09T23:29:23.815Z,10.48
2022-08-09T23:31:34.802Z,9.90
2022-08-09T23:33:37.863Z,8.82
2022-08-09T23:36:05.925Z,8.00
2022-08-09T23:38:06.413Z,8.30
2022-08-09T23:40:10.827Z,11.75
2022-08-09T23:42:13.914Z,8.93
2022-08-09T23:44:16.948Z,8.95
2022-08-09T23:46:19.960Z,9.38
2022-08-09T23:48:22.967Z,13.00
2022-08-09T23:50:25.987Z,9.70
2022-08-09T23:52:31.610Z,13.52
2022-08-09T23:54:43.419Z,8.93
2022-08-09T23:56:54.731Z,10.40
2022-08-09T23:58:59.180Z,11.25
